sensor_id;sensor_type;location;lat;lon;timestamp;P1;durP1;ratioP1;P2;durP2;ratioP2
13404;SDS011;6773;51.192;7.024;2022-07-29T00:01:52;2.90;;;1.45;;
13404;SDS011;6773;51.192;7.024;2022-07-29T00:04:18;3.35;;;1.40;;
13404;SDS011;6773;51.192;7.024;2022-07-29T00:06:44;4.60;;;1.55;;
13404;SDS011;6773;51.192;7.024;2022-07-29T00:09:10;3.75;;;1.30;;
13404;SDS011;6773;51.192;7.024;2022-07-29T00:11:36;2.30;;;1.45;;
13404;SDS011;6773;51.192;7.024;2022-07-29T00:14:02;3.13;;;1.42;;
13404;SDS011;6773;51.192;7.024;2022-07-29T00:16:28;2.53;;;1.50;;
13404;SDS011;6773;51.192;7.024;2022-07-29T00:18:53;4.25;;;1.70;;
13404;SDS011;6773;51.192;7.024;2022-07-29T00:21:19;1.50;;;1.40;;
13404;SDS011;6773;51.192;7.024;2022-07-29T00:23:45;4.13;;;1.40;;
13404;SDS011;6773;51.192;7.024;2022-07-29T00:26:11;2.30;;;1.40;;
13404;SDS011;6773;51.192;7.024;2022-07-29T00:28:36;2.83;;;1.40;;
13404;SDS011;6773;51.192;7.024;2022-07-29T00:31:02;2.35;;;1.13;;
13404;SDS011;6773;51.192;7.024;2022-07-29T00:33:28;1.73;;;1.38;;
13404;SDS011;6773;51.192;7.024;2022-07-29T00:35:54;3.03;;;1.30;;
13404;SDS011;6773;51.192;7.024;2022-07-29T00:38:19;2.42;;;1.50;;
13404;SDS011;6773;51.192;7.024;2022-07-29T00:40:46;3.10;;;1.50;;
13404;SDS011;6773;51.192;7.024;2022-07-29T00:43:12;3.85;;;1.58;;
13404;SDS011;6773;51.192;7.024;2022-07-29T00:45:39;3.08;;;1.42;;
13404;SDS011;6773;51.192;7.024;2022-07-29T00:48:05;4.28;;;1.45;;
13404;SDS011;6773;51.192;7.024;2022-07-29T00:50:32;2.95;;;1.48;;
13404;SDS011;6773;51.192;7.024;2022-07-29T00:52:58;4.57;;;1.67;;
13404;SDS011;6773;51.192;7.024;2022-07-29T00:55:23;2.40;;;1.60;;
13404;SDS011;6773;51.192;7.024;2022-07-29T00:57:49;4.55;;;1.70;;
13404;SDS011;6773;51.192;7.024;2022-07-29T01:00:18;7.57;;;1.50;;
13404;SDS011;6773;51.192;7.024;2022-07-29T01:02:46;2.95;;;1.42;;
13404;SDS011;6773;51.192;7.024;2022-07-29T01:05:19;2.35;;;1.30;;
13404;SDS011;6773;51.192;7.024;2022-07-29T01:07:47;2.55;;;1.60;;
13404;SDS011;6773;51.192;7.024;2022-07-29T01:10:16;5.40;;;1.63;;
13404;SDS011;6773;51.192;7.024;2022-07-29T01:12:43;4.55;;;1.52;;
13404;SDS011;6773;51.192;7.024;2022-07-29T01:15:11;2.70;;;1.60;;
13404;SDS011;6773;51.192;7.024;2022-07-29T01:17:44;4.78;;;1.40;;
13404;SDS011;6773;51.192;7.024;2022-07-29T01:31:18;1.98;;;1.40;;
13404;SDS011;6773;51.192;7.024;2022-07-29T01:33:50;2.70;;;1.73;;
13404;SDS011;6773;51.192;7.024;2022-07-29T01:36:27;2.10;;;1.40;;
13404;SDS011;6773;51.192;7.024;2022-07-29T01:39:08;1.85;;;1.70;;
13404;SDS011;6773;51.192;7.024;2022-07-29T01:41:38;2.35;;;1.45;;
13404;SDS011;6773;51.192;7.024;2022-07-29T01:44:13;1.80;;;1.30;;
13404;SDS011;6773;51.192;7.024;2022-07-29T01:46:44;3.38;;;1.83;;
13404;SDS011;6773;51.192;7.024;2022-07-29T01:49:18;2.88;;;1.60;;
13404;SDS011;6773;51.192;7.024;2022-07-29T01:51:54;1.45;;;1.35;;
13404;SDS011;6773;51.192;7.024;2022-07-29T01:54:32;3.13;;;1.40;;
13404;SDS011;6773;51.192;7.024;2022-07-29T01:56:59;3.00;;;1.40;;
13404;SDS011;6773;51.192;7.024;2022-07-29T01:59:26;4.00;;;1.80;;
13404;SDS011;6773;51.192;7.024;2022-07-29T02:01:54;4.50;;;1.73;;
13404;SDS011;6773;51.192;7.024;2022-07-29T02:04:21;3.00;;;1.50;;
13404;SDS011;6773;51.192;7.024;2022-07-29T02:06:49;4.95;;;2.00;;
13404;SDS011;6773;51.192;7.024;2022-07-29T02:09:17;2.28;;;1.73;;
13404;SDS011;6773;51.192;7.024;2022-07-29T02:11:47;5.40;;;1.85;;
13404;SDS011;6773;51.192;7.024;2022-07-29T02:14:17;2.40;;;1.50;;
13404;SDS011;6773;51.192;7.024;2022-07-29T02:16:44;4.53;;;1.90;;
13404;SDS011;6773;51.192;7.024;2022-07-29T02:19:13;2.00;;;1.38;;
13404;SDS011;6773;51.192;7.024;2022-07-29T02:21:40;1.83;;;1.30;;
13404;SDS011;6773;51.192;7.024;2022-07-29T02:24:07;1.92;;;1.30;;
13404;SDS011;6773;51.192;7.024;2022-07-29T02:26:36;3.95;;;1.50;;
13404;SDS011;6773;51.192;7.024;2022-07-29T02:29:04;4.70;;;1.70;;
13404;SDS011;6773;51.192;7.024;2022-07-29T02:31:32;1.48;;;1.25;;
13404;SDS011;6773;51.192;7.024;2022-07-29T02:34:01;4.47;;;1.58;;
13404;SDS011;6773;51.192;7.024;2022-07-29T02:36:30;2.78;;;1.40;;
13404;SDS011;6773;51.192;7.024;2022-07-29T02:38:57;2.42;;;1.27;;
13404;SDS011;6773;51.192;7.024;2022-07-29T02:41:30;2.10;;;1.48;;
13404;SDS011;6773;51.192;7.024;2022-07-29T02:44:03;1.88;;;1.45;;
13404;SDS011;6773;51.192;7.024;2022-07-29T02:46:34;2.33;;;1.70;;
13404;SDS011;6773;51.192;7.024;2022-07-29T02:49:04;5.03;;;1.58;;
13404;SDS011;6773;51.192;7.024;2022-07-29T02:51:45;2.63;;;1.33;;
13404;SDS011;6773;51.192;7.024;2022-07-29T02:54:29;3.47;;;1.60;;
13404;SDS011;6773;51.192;7.024;2022-07-29T02:56:57;2.50;;;1.50;;
13404;SDS011;6773;51.192;7.024;2022-07-29T02:59:28;2.15;;;1.70;;
13404;SDS011;6773;51.192;7.024;2022-07-29T03:01:58;1.65;;;1.40;;
13404;SDS011;6773;51.192;7.024;2022-07-29T03:04:25;3.53;;;1.50;;
13404;SDS011;6773;51.192;7.024;2022-07-29T03:06:53;2.55;;;1.60;;
13404;SDS011;6773;51.192;7.024;2022-07-29T03:09:20;2.65;;;1.50;;
13404;SDS011;6773;51.192;7.024;2022-07-29T03:11:48;2.33;;;1.50;;
13404;SDS011;6773;51.192;7.024;2022-07-29T03:14:14;4.03;;;1.52;;
13404;SDS011;6773;51.192;7.024;2022-07-29T03:16:41;2.25;;;1.23;;
13404;SDS011;6773;51.192;7.024;2022-07-29T03:19:07;2.13;;;1.60;;
13404;SDS011;6773;51.192;7.024;2022-07-29T03:21:33;2.25;;;1.48;;
13404;SDS011;6773;51.192;7.024;2022-07-29T03:23:59;3.22;;;1.65;;
13404;SDS011;6773;51.192;7.024;2022-07-29T03:26:24;3.90;;;1.70;;
13404;SDS011;6773;51.192;7.024;2022-07-29T03:28:50;4.07;;;1.67;;
13404;SDS011;6773;51.192;7.024;2022-07-29T03:31:16;4.05;;;1.77;;
13404;SDS011;6773;51.192;7.024;2022-07-29T03:33:42;3.03;;;1.60;;
13404;SDS011;6773;51.192;7.024;2022-07-29T03:36:07;2.17;;;1.58;;
13404;SDS011;6773;51.192;7.024;2022-07-29T03:38:33;3.05;;;1.80;;
13404;SDS011;6773;51.192;7.024;2022-07-29T03:41:02;2.67;;;1.58;;
13404;SDS011;6773;51.192;7.024;2022-07-29T03:43:33;4.95;;;2.15;;
13404;SDS011;6773;51.192;7.024;2022-07-29T03:46:02;4.57;;;1.77;;
13404;SDS011;6773;51.192;7.024;2022-07-29T03:48:30;3.90;;;1.92;;
13404;SDS011;6773;51.192;7.024;2022-07-29T03:50:59;2.92;;;1.80;;
13404;SDS011;6773;51.192;7.024;2022-07-29T03:53:25;5.10;;;1.95;;
13404;SDS011;6773;51.192;7.024;2022-07-29T03:55:52;1.90;;;1.60;;
13404;SDS011;6773;51.192;7.024;2022-07-29T03:58:23;3.65;;;1.70;;
13404;SDS011;6773;51.192;7.024;2022-07-29T04:00:52;2.15;;;1.60;;
13404;SDS011;6773;51.192;7.024;2022-07-29T04:03:20;7.25;;;2.30;;
13404;SDS011;6773;51.192;7.024;2022-07-29T04:05:57;3.63;;;2.10;;
13404;SDS011;6773;51.192;7.024;2022-07-29T04:08:33;3.53;;;1.90;;
13404;SDS011;6773;51.192;7.024;2022-07-29T04:11:00;3.63;;;1.65;;
13404;SDS011;6773;51.192;7.024;2022-07-29T04:13:26;3.03;;;1.85;;
13404;SDS011;6773;51.192;7.024;2022-07-29T04:15:52;3.17;;;1.83;;
13404;SDS011;6773;51.192;7.024;2022-07-29T04:18:18;2.40;;;1.65;;
13404;SDS011;6773;51.192;7.024;2022-07-29T04:20:44;4.65;;;2.00;;
13404;SDS011;6773;51.192;7.024;2022-07-29T04:23:10;5.55;;;1.88;;
13404;SDS011;6773;51.192;7.024;2022-07-29T04:25:39;2.28;;;1.55;;
13404;SDS011;6773;51.192;7.024;2022-07-29T04:28:05;5.78;;;1.80;;
13404;SDS011;6773;51.192;7.024;2022-07-29T04:30:32;4.32;;;1.70;;
13404;SDS011;6773;51.192;7.024;2022-07-29T04:32:59;5.60;;;2.25;;
13404;SDS011;6773;51.192;7.024;2022-07-29T04:35:25;3.13;;;1.50;;
13404;SDS011;6773;51.192;7.024;2022-07-29T04:37:52;6.03;;;1.83;;
13404;SDS011;6773;51.192;7.024;2022-07-29T04:40:18;4.75;;;1.70;;
13404;SDS011;6773;51.192;7.024;2022-07-29T04:42:43;3.47;;;1.60;;
13404;SDS011;6773;51.192;7.024;2022-07-29T04:45:09;2.72;;;1.73;;
13404;SDS011;6773;51.192;7.024;2022-07-29T04:47:35;6.57;;;1.60;;
13404;SDS011;6773;51.192;7.024;2022-07-29T04:50:01;2.60;;;1.63;;
13404;SDS011;6773;51.192;7.024;2022-07-29T04:52:27;4.32;;;1.75;;
13404;SDS011;6773;51.192;7.024;2022-07-29T04:54:52;2.80;;;1.40;;
13404;SDS011;6773;51.192;7.024;2022-07-29T04:57:18;3.03;;;2.17;;
13404;SDS011;6773;51.192;7.024;2022-07-29T04:59:44;3.28;;;1.63;;
13404;SDS011;6773;51.192;7.024;2022-07-29T05:02:10;2.10;;;1.50;;
13404;SDS011;6773;51.192;7.024;2022-07-29T05:04:36;1.67;;;1.58;;
13404;SDS011;6773;51.192;7.024;2022-07-29T05:07:02;2.45;;;1.40;;
13404;SDS011;6773;51.192;7.024;2022-07-29T05:09:27;4.00;;;1.55;;
13404;SDS011;6773;51.192;7.024;2022-07-29T05:11:53;6.25;;;2.00;;
13404;SDS011;6773;51.192;7.024;2022-07-29T05:14:19;6.13;;;1.63;;
13404;SDS011;6773;51.192;7.024;2022-07-29T05:16:44;6.85;;;1.90;;
13404;SDS011;6773;51.192;7.024;2022-07-29T05:19:11;11.45;;;2.85;;
13404;SDS011;6773;51.192;7.024;2022-07-29T05:21:36;11.50;;;2.60;;
13404;SDS011;6773;51.192;7.024;2022-07-29T05:24:02;5.70;;;2.08;;
13404;SDS011;6773;51.192;7.024;2022-07-29T05:26:28;7.10;;;1.90;;
13404;SDS011;6773;51.192;7.024;2022-07-29T05:28:54;4.47;;;1.73;;
13404;SDS011;6773;51.192;7.024;2022-07-29T05:31:20;4.20;;;2.05;;
13404;SDS011;6773;51.192;7.024;2022-07-29T05:33:51;3.47;;;1.92;;
13404;SDS011;6773;51.192;7.024;2022-07-29T05:36:17;4.78;;;2.20;;
13404;SDS011;6773;51.192;7.024;2022-07-29T05:38:43;8.80;;;1.90;;
13404;SDS011;6773;51.192;7.024;2022-07-29T05:41:08;4.05;;;1.63;;
13404;SDS011;6773;51.192;7.024;2022-07-29T05:43:34;7.68;;;1.80;;
13404;SDS011;6773;51.192;7.024;2022-07-29T05:45:59;4.32;;;2.00;;
13404;SDS011;6773;51.192;7.024;2022-07-29T05:48:25;6.47;;;2.13;;
13404;SDS011;6773;51.192;7.024;2022-07-29T05:50:51;5.22;;;1.90;;
13404;SDS011;6773;51.192;7.024;2022-07-29T05:53:17;5.70;;;1.70;;
13404;SDS011;6773;51.192;7.024;2022-07-29T05:55:42;2.85;;;1.65;;
13404;SDS011;6773;51.192;7.024;2022-07-29T05:58:08;5.57;;;1.80;;
13404;SDS011;6773;51.192;7.024;2022-07-29T06:00:34;5.13;;;1.90;;
13404;SDS011;6773;51.192;7.024;2022-07-29T06:03:00;5.70;;;1.83;;
13404;SDS011;6773;51.192;7.024;2022-07-29T06:05:26;4.63;;;1.90;;
13404;SDS011;6773;51.192;7.024;2022-07-29T06:07:52;4.70;;;2.00;;
13404;SDS011;6773;51.192;7.024;2022-07-29T06:10:18;6.97;;;1.80;;
13404;SDS011;6773;51.192;7.024;2022-07-29T06:12:44;5.15;;;2.20;;
13404;SDS011;6773;51.192;7.024;2022-07-29T06:15:10;4.40;;;1.70;;
13404;SDS011;6773;51.192;7.024;2022-07-29T06:17:36;4.60;;;2.53;;
13404;SDS011;6773;51.192;7.024;2022-07-29T06:20:02;3.97;;;1.90;;
13404;SDS011;6773;51.192;7.024;2022-07-29T06:22:28;5.05;;;2.03;;
13404;SDS011;6773;51.192;7.024;2022-07-29T06:24:54;5.57;;;1.70;;
13404;SDS011;6773;51.192;7.024;2022-07-29T06:27:19;7.03;;;1.85;;
13404;SDS011;6773;51.192;7.024;2022-07-29T06:29:45;6.15;;;2.08;;
13404;SDS011;6773;51.192;7.024;2022-07-29T06:32:10;3.80;;;2.05;;
13404;SDS011;6773;51.192;7.024;2022-07-29T06:34:36;3.97;;;1.90;;
13404;SDS011;6773;51.192;7.024;2022-07-29T06:37:08;3.67;;;1.80;;
13404;SDS011;6773;51.192;7.024;2022-07-29T06:39:35;3.05;;;1.92;;
13404;SDS011;6773;51.192;7.024;2022-07-29T06:42:01;5.40;;;2.50;;
13404;SDS011;6773;51.192;7.024;2022-07-29T06:44:27;2.95;;;1.90;;
13404;SDS011;6773;51.192;7.024;2022-07-29T06:46:53;7.78;;;2.55;;
13404;SDS011;6773;51.192;7.024;2022-07-29T06:49:19;4.00;;;1.80;;
13404;SDS011;6773;51.192;7.024;2022-07-29T06:51:45;7.00;;;1.83;;
13404;SDS011;6773;51.192;7.024;2022-07-29T06:54:11;3.28;;;1.92;;
13404;SDS011;6773;51.192;7.024;2022-07-29T06:56:37;3.83;;;1.80;;
13404;SDS011;6773;51.192;7.024;2022-07-29T06:59:03;4.68;;;1.90;;
13404;SDS011;6773;51.192;7.024;2022-07-29T07:01:30;3.88;;;2.00;;
13404;SDS011;6773;51.192;7.024;2022-07-29T07:03:55;2.67;;;1.70;;
13404;SDS011;6773;51.192;7.024;2022-07-29T07:06:21;5.53;;;2.15;;
13404;SDS011;6773;51.192;7.024;2022-07-29T07:08:47;4.60;;;1.90;;
13404;SDS011;6773;51.192;7.024;2022-07-29T07:11:13;6.43;;;2.03;;
13404;SDS011;6773;51.192;7.024;2022-07-29T07:13:39;8.10;;;2.10;;
13404;SDS011;6773;51.192;7.024;2022-07-29T07:16:04;5.43;;;1.70;;
13404;SDS011;6773;51.192;7.024;2022-07-29T07:18:30;3.92;;;1.98;;
13404;SDS011;6773;51.192;7.024;2022-07-29T07:20:56;3.67;;;1.88;;
13404;SDS011;6773;51.192;7.024;2022-07-29T07:23:22;3.10;;;1.70;;
13404;SDS011;6773;51.192;7.024;2022-07-29T07:25:47;9.13;;;2.20;;
13404;SDS011;6773;51.192;7.024;2022-07-29T07:28:13;4.07;;;1.92;;
13404;SDS011;6773;51.192;7.024;2022-07-29T07:30:39;6.10;;;2.00;;
13404;SDS011;6773;51.192;7.024;2022-07-29T07:33:04;4.38;;;2.05;;
13404;SDS011;6773;51.192;7.024;2022-07-29T07:35:30;3.85;;;2.20;;
13404;SDS011;6773;51.192;7.024;2022-07-29T07:37:56;3.90;;;2.45;;
13404;SDS011;6773;51.192;7.024;2022-07-29T07:40:23;3.88;;;2.28;;
13404;SDS011;6773;51.192;7.024;2022-07-29T07:42:49;6.05;;;2.47;;
13404;SDS011;6773;51.192;7.024;2022-07-29T07:45:15;4.72;;;2.38;;
13404;SDS011;6773;51.192;7.024;2022-07-29T07:47:42;5.60;;;2.85;;
13404;SDS011;6773;51.192;7.024;2022-07-29T07:50:09;4.35;;;2.65;;
13404;SDS011;6773;51.192;7.024;2022-07-29T07:52:45;4.10;;;2.30;;
13404;SDS011;6773;51.192;7.024;2022-07-29T07:55:18;6.35;;;2.83;;
13404;SDS011;6773;51.192;7.024;2022-07-29T07:57:44;5.40;;;2.72;;
13404;SDS011;6773;51.192;7.024;2022-07-29T08:00:11;7.15;;;2.63;;
13404;SDS011;6773;51.192;7.024;2022-07-29T08:02:37;6.38;;;2.72;;
13404;SDS011;6773;51.192;7.024;2022-07-29T08:05:04;4.35;;;2.40;;
13404;SDS011;6773;51.192;7.024;2022-07-29T08:07:31;4.85;;;2.50;;
13404;SDS011;6773;51.192;7.024;2022-07-29T08:09:57;7.88;;;3.13;;
13404;SDS011;6773;51.192;7.024;2022-07-29T08:12:23;4.90;;;2.60;;
13404;SDS011;6773;51.192;7.024;2022-07-29T08:14:48;4.63;;;2.50;;
13404;SDS011;6773;51.192;7.024;2022-07-29T08:17:14;5.15;;;2.72;;
13404;SDS011;6773;51.192;7.024;2022-07-29T08:19:39;4.43;;;2.35;;
13404;SDS011;6773;51.192;7.024;2022-07-29T08:22:05;4.78;;;2.60;;
13404;SDS011;6773;51.192;7.024;2022-07-29T08:24:31;8.77;;;2.88;;
13404;SDS011;6773;51.192;7.024;2022-07-29T08:27:12;10.98;;;2.70;;
13404;SDS011;6773;51.192;7.024;2022-07-29T08:29:38;10.60;;;3.00;;
13404;SDS011;6773;51.192;7.024;2022-07-29T08:32:04;6.25;;;2.75;;
13404;SDS011;6773;51.192;7.024;2022-07-29T08:34:30;6.75;;;2.85;;
13404;SDS011;6773;51.192;7.024;2022-07-29T08:36:57;11.50;;;3.15;;
13404;SDS011;6773;51.192;7.024;2022-07-29T08:39:23;7.78;;;2.60;;
13404;SDS011;6773;51.192;7.024;2022-07-29T08:41:49;5.95;;;2.60;;
13404;SDS011;6773;51.192;7.024;2022-07-29T08:44:16;5.60;;;2.50;;
13404;SDS011;6773;51.192;7.024;2022-07-29T08:46:46;7.95;;;2.70;;
13404;SDS011;6773;51.192;7.024;2022-07-29T08:49:12;7.95;;;2.97;;
13404;SDS011;6773;51.192;7.024;2022-07-29T08:51:41;6.88;;;2.83;;
13404;SDS011;6773;51.192;7.024;2022-07-29T08:54:08;4.82;;;2.63;;
13404;SDS011;6773;51.192;7.024;2022-07-29T08:56:34;8.00;;;2.47;;
13404;SDS011;6773;51.192;7.024;2022-07-29T08:59:04;5.07;;;2.75;;
13404;SDS011;6773;51.192;7.024;2022-07-29T09:01:31;6.18;;;2.72;;
13404;SDS011;6773;51.192;7.024;2022-07-29T09:03:58;12.60;;;3.50;;
13404;SDS011;6773;51.192;7.024;2022-07-29T09:06:26;5.68;;;2.92;;
13404;SDS011;6773;51.192;7.024;2022-07-29T09:08:58;9.00;;;3.28;;
13404;SDS011;6773;51.192;7.024;2022-07-29T09:11:25;9.32;;;2.97;;
13404;SDS011;6773;51.192;7.024;2022-07-29T09:13:51;3.75;;;2.53;;
13404;SDS011;6773;51.192;7.024;2022-07-29T09:16:17;6.20;;;2.63;;
13404;SDS011;6773;51.192;7.024;2022-07-29T09:18:44;4.57;;;2.70;;
13404;SDS011;6773;51.192;7.024;2022-07-29T09:21:14;7.97;;;2.78;;
13404;SDS011;6773;51.192;7.024;2022-07-29T09:24:09;6.25;;;2.75;;
13404;SDS011;6773;51.192;7.024;2022-07-29T09:26:37;11.13;;;2.50;;
13404;SDS011;6773;51.192;7.024;2022-07-29T09:29:09;6.45;;;3.00;;
13404;SDS011;6773;51.192;7.024;2022-07-29T09:31:41;3.25;;;2.45;;
13404;SDS011;6773;51.192;7.024;2022-07-29T09:34:13;5.07;;;2.58;;
13404;SDS011;6773;51.192;7.024;2022-07-29T09:36:44;4.90;;;2.75;;
13404;SDS011;6773;51.192;7.024;2022-07-29T09:39:11;5.15;;;2.80;;
13404;SDS011;6773;51.192;7.024;2022-07-29T09:41:47;5.22;;;2.67;;
13404;SDS011;6773;51.192;7.024;2022-07-29T09:44:14;4.30;;;2.33;;
13404;SDS011;6773;51.192;7.024;2022-07-29T09:46:40;5.63;;;2.42;;
13404;SDS011;6773;51.192;7.024;2022-07-29T09:49:30;7.38;;;2.70;;
13404;SDS011;6773;51.192;7.024;2022-07-29T09:52:06;5.63;;;2.53;;
13404;SDS011;6773;51.192;7.024;2022-07-29T09:54:33;4.82;;;2.50;;
13404;SDS011;6773;51.192;7.024;2022-07-29T09:57:07;6.53;;;2.97;;
13404;SDS011;6773;51.192;7.024;2022-07-29T09:59:37;5.60;;;2.50;;
13404;SDS011;6773;51.192;7.024;2022-07-29T10:02:13;4.40;;;2.58;;
13404;SDS011;6773;51.192;7.024;2022-07-29T10:04:40;5.53;;;2.30;;
13404;SDS011;6773;51.192;7.024;2022-07-29T10:07:06;4.88;;;2.80;;
13404;SDS011;6773;51.192;7.024;2022-07-29T10:09:33;3.15;;;2.15;;
13404;SDS011;6773;51.192;7.024;2022-07-29T10:14:32;4.43;;;2.75;;
13404;SDS011;6773;51.192;7.024;2022-07-29T10:17:02;5.82;;;2.50;;
13404;SDS011;6773;51.192;7.024;2022-07-29T10:19:30;7.95;;;3.03;;
13404;SDS011;6773;51.192;7.024;2022-07-29T10:21:59;4.88;;;2.80;;
13404;SDS011;6773;51.192;7.024;2022-07-29T10:24:26;8.45;;;3.00;;
13404;SDS011;6773;51.192;7.024;2022-07-29T10:26:56;5.25;;;2.60;;
13404;SDS011;6773;51.192;7.024;2022-07-29T10:29:24;4.65;;;2.83;;
13404;SDS011;6773;51.192;7.024;2022-07-29T10:42:18;6.45;;;3.08;;
13404;SDS011;6773;51.192;7.024;2022-07-29T10:44:49;5.93;;;3.30;;
13404;SDS011;6773;51.192;7.024;2022-07-29T10:47:21;6.82;;;3.38;;
13404;SDS011;6773;51.192;7.024;2022-07-29T10:49:57;7.13;;;3.30;;
13404;SDS011;6773;51.192;7.024;2022-07-29T10:52:24;5.82;;;2.80;;
13404;SDS011;6773;51.192;7.024;2022-07-29T10:54:52;4.80;;;2.83;;
13404;SDS011;6773;51.192;7.024;2022-07-29T11:05:17;6.85;;;3.00;;
13404;SDS011;6773;51.192;7.024;2022-07-29T11:10:34;6.25;;;3.00;;
13404;SDS011;6773;51.192;7.024;2022-07-29T11:13:00;10.40;;;3.97;;
13404;SDS011;6773;51.192;7.024;2022-07-29T11:15:26;7.35;;;3.65;;
13404;SDS011;6773;51.192;7.024;2022-07-29T11:26:15;8.20;;;3.22;;
13404;SDS011;6773;51.192;7.024;2022-07-29T11:31:49;7.75;;;2.80;;
13404;SDS011;6773;51.192;7.024;2022-07-29T11:34:23;4.90;;;2.85;;
13404;SDS011;6773;51.192;7.024;2022-07-29T11:39:32;4.40;;;2.50;;
13404;SDS011;6773;51.192;7.024;2022-07-29T11:44:59;4.40;;;1.92;;
13404;SDS011;6773;51.192;7.024;2022-07-29T11:47:26;5.00;;;2.17;;
13404;SDS011;6773;51.192;7.024;2022-07-29T11:49:53;4.20;;;2.13;;
13404;SDS011;6773;51.192;7.024;2022-07-29T11:52:21;6.60;;;2.70;;
13404;SDS011;6773;51.192;7.024;2022-07-29T11:54:47;8.25;;;2.67;;
13404;SDS011;6773;51.192;7.024;2022-07-29T11:57:16;7.18;;;2.78;;
13404;SDS011;6773;51.192;7.024;2022-07-29T11:59:43;4.05;;;2.70;;
13404;SDS011;6773;51.192;7.024;2022-07-29T12:02:10;5.93;;;2.72;;
13404;SDS011;6773;51.192;7.024;2022-07-29T12:04:52;5.18;;;2.92;;
13404;SDS011;6773;51.192;7.024;2022-07-29T12:07:29;7.47;;;3.28;;
13404;SDS011;6773;51.192;7.024;2022-07-29T12:09:58;7.50;;;2.63;;
13404;SDS011;6773;51.192;7.024;2022-07-29T12:12:24;5.93;;;3.13;;
13404;SDS011;6773;51.192;7.024;2022-07-29T12:14:50;7.53;;;2.63;;
13404;SDS011;6773;51.192;7.024;2022-07-29T12:19:52;8.15;;;2.65;;
13404;SDS011;6773;51.192;7.024;2022-07-29T12:22:25;5.38;;;2.72;;
13404;SDS011;6773;51.192;7.024;2022-07-29T12:24:55;5.70;;;2.45;;
13404;SDS011;6773;51.192;7.024;2022-07-29T12:27:21;5.78;;;2.75;;
13404;SDS011;6773;51.192;7.024;2022-07-29T12:30:00;5.45;;;2.33;;
13404;SDS011;6773;51.192;7.024;2022-07-29T12:35:05;6.38;;;2.67;;
13404;SDS011;6773;51.192;7.024;2022-07-29T12:37:37;4.22;;;2.63;;
13404;SDS011;6773;51.192;7.024;2022-07-29T12:40:04;6.30;;;2.80;;
13404;SDS011;6773;51.192;7.024;2022-07-29T12:42:32;5.65;;;2.45;;
13404;SDS011;6773;51.192;7.024;2022-07-29T12:44:59;7.20;;;2.65;;
13404;SDS011;6773;51.192;7.024;2022-07-29T12:47:25;5.57;;;2.60;;
13404;SDS011;6773;51.192;7.024;2022-07-29T12:49:52;5.75;;;2.72;;
13404;SDS011;6773;51.192;7.024;2022-07-29T12:52:36;3.85;;;2.78;;
13404;SDS011;6773;51.192;7.024;2022-07-29T12:55:02;6.82;;;2.70;;
13404;SDS011;6773;51.192;7.024;2022-07-29T12:57:28;9.02;;;2.50;;
13404;SDS011;6773;51.192;7.024;2022-07-29T13:00:04;3.92;;;2.55;;
13404;SDS011;6773;51.192;7.024;2022-07-29T13:02:35;4.70;;;2.42;;
13404;SDS011;6773;51.192;7.024;2022-07-29T13:05:03;4.10;;;2.72;;
13404;SDS011;6773;51.192;7.024;2022-07-29T13:07:30;6.25;;;2.92;;
13404;SDS011;6773;51.192;7.024;2022-07-29T13:10:14;5.07;;;2.97;;
13404;SDS011;6773;51.192;7.024;2022-07-29T13:15:30;4.70;;;2.38;;
13404;SDS011;6773;51.192;7.024;2022-07-29T13:17:56;3.88;;;2.30;;
13404;SDS011;6773;51.192;7.024;2022-07-29T13:20:23;5.00;;;2.55;;
13404;SDS011;6773;51.192;7.024;2022-07-29T13:22:50;4.35;;;2.63;;
13404;SDS011;6773;51.192;7.024;2022-07-29T13:25:23;5.15;;;2.60;;
13404;SDS011;6773;51.192;7.024;2022-07-29T13:27:53;6.70;;;2.50;;
13404;SDS011;6773;51.192;7.024;2022-07-29T13:30:19;6.18;;;2.60;;
13404;SDS011;6773;51.192;7.024;2022-07-29T13:32:46;6.28;;;2.70;;
13404;SDS011;6773;51.192;7.024;2022-07-29T13:35:12;4.28;;;2.22;;
13404;SDS011;6773;51.192;7.024;2022-07-29T13:37:38;4.78;;;2.55;;
13404;SDS011;6773;51.192;7.024;2022-07-29T13:40:04;5.40;;;2.80;;
13404;SDS011;6773;51.192;7.024;2022-07-29T13:42:31;3.88;;;2.65;;
13404;SDS011;6773;51.192;7.024;2022-07-29T13:44:57;5.80;;;2.72;;
13404;SDS011;6773;51.192;7.024;2022-07-29T13:47:24;5.25;;;2.70;;
13404;SDS011;6773;51.192;7.024;2022-07-29T13:49:50;5.53;;;2.60;;
13404;SDS011;6773;51.192;7.024;2022-07-29T13:52:16;6.35;;;2.58;;
13404;SDS011;6773;51.192;7.024;2022-07-29T13:54:42;6.00;;;2.72;;
13404;SDS011;6773;51.192;7.024;2022-07-29T13:57:08;5.30;;;2.70;;
13404;SDS011;6773;51.192;7.024;2022-07-29T13:59:35;5.20;;;2.80;;
13404;SDS011;6773;51.192;7.024;2022-07-29T14:02:01;6.05;;;2.80;;
13404;SDS011;6773;51.192;7.024;2022-07-29T14:04:27;5.45;;;3.05;;
13404;SDS011;6773;51.192;7.024;2022-07-29T14:06:53;4.18;;;2.92;;
13404;SDS011;6773;51.192;7.024;2022-07-29T14:09:19;7.45;;;2.92;;
13404;SDS011;6773;51.192;7.024;2022-07-29T14:11:44;6.05;;;3.05;;
13404;SDS011;6773;51.192;7.024;2022-07-29T14:14:10;5.88;;;3.13;;
13404;SDS011;6773;51.192;7.024;2022-07-29T14:16:36;4.05;;;2.70;;
13404;SDS011;6773;51.192;7.024;2022-07-29T14:19:02;5.88;;;2.70;;
13404;SDS011;6773;51.192;7.024;2022-07-29T14:21:28;3.88;;;2.33;;
13404;SDS011;6773;51.192;7.024;2022-07-29T14:23:53;5.00;;;2.63;;
13404;SDS011;6773;51.192;7.024;2022-07-29T14:26:19;5.93;;;2.63;;
13404;SDS011;6773;51.192;7.024;2022-07-29T14:28:47;5.25;;;2.72;;
13404;SDS011;6773;51.192;7.024;2022-07-29T14:31:13;3.63;;;2.33;;
13404;SDS011;6773;51.192;7.024;2022-07-29T14:33:39;7.53;;;2.58;;
13404;SDS011;6773;51.192;7.024;2022-07-29T14:36:05;5.40;;;2.55;;
13404;SDS011;6773;51.192;7.024;2022-07-29T14:38:30;4.63;;;2.67;;
13404;SDS011;6773;51.192;7.024;2022-07-29T14:40:56;7.78;;;2.65;;
13404;SDS011;6773;51.192;7.024;2022-07-29T14:43:21;5.20;;;3.05;;
13404;SDS011;6773;51.192;7.024;2022-07-29T14:45:47;5.25;;;2.55;;
13404;SDS011;6773;51.192;7.024;2022-07-29T14:48:13;4.88;;;2.83;;
13404;SDS011;6773;51.192;7.024;2022-07-29T14:50:38;3.78;;;2.42;;
13404;SDS011;6773;51.192;7.024;2022-07-29T14:53:04;5.22;;;2.67;;
13404;SDS011;6773;51.192;7.024;2022-07-29T14:55:29;4.75;;;2.50;;
13404;SDS011;6773;51.192;7.024;2022-07-29T14:57:55;5.50;;;2.33;;
13404;SDS011;6773;51.192;7.024;2022-07-29T15:00:21;6.80;;;2.70;;
13404;SDS011;6773;51.192;7.024;2022-07-29T15:02:47;4.63;;;2.47;;
13404;SDS011;6773;51.192;7.024;2022-07-29T15:05:13;4.90;;;2.55;;
13404;SDS011;6773;51.192;7.024;2022-07-29T15:07:39;6.80;;;2.40;;
13404;SDS011;6773;51.192;7.024;2022-07-29T15:10:04;4.07;;;2.33;;
13404;SDS011;6773;51.192;7.024;2022-07-29T15:12:31;5.82;;;2.80;;
13404;SDS011;6773;51.192;7.024;2022-07-29T15:14:56;7.50;;;2.75;;
13404;SDS011;6773;51.192;7.024;2022-07-29T15:17:22;5.47;;;2.85;;
13404;SDS011;6773;51.192;7.024;2022-07-29T15:19:48;7.10;;;3.20;;
13404;SDS011;6773;51.192;7.024;2022-07-29T15:22:13;5.55;;;2.80;;
13404;SDS011;6773;51.192;7.024;2022-07-29T15:24:39;6.63;;;3.25;;
13404;SDS011;6773;51.192;7.024;2022-07-29T15:27:05;4.10;;;2.80;;
13404;SDS011;6773;51.192;7.024;2022-07-29T15:29:30;5.68;;;3.00;;
13404;SDS011;6773;51.192;7.024;2022-07-29T15:31:56;6.68;;;2.85;;
13404;SDS011;6773;51.192;7.024;2022-07-29T15:34:21;5.30;;;2.88;;
13404;SDS011;6773;51.192;7.024;2022-07-29T15:36:48;5.13;;;3.10;;
13404;SDS011;6773;51.192;7.024;2022-07-29T15:39:15;4.88;;;2.75;;
13404;SDS011;6773;51.192;7.024;2022-07-29T15:41:41;3.95;;;2.50;;
13404;SDS011;6773;51.192;7.024;2022-07-29T15:44:07;4.25;;;2.83;;
13404;SDS011;6773;51.192;7.024;2022-07-29T15:46:33;4.63;;;2.85;;
13404;SDS011;6773;51.192;7.024;2022-07-29T15:49:17;4.35;;;2.63;;
13404;SDS011;6773;51.192;7.024;2022-07-29T15:51:43;6.28;;;2.75;;
13404;SDS011;6773;51.192;7.024;2022-07-29T15:54:09;5.85;;;2.80;;
13404;SDS011;6773;51.192;7.024;2022-07-29T15:56:34;7.25;;;2.55;;
13404;SDS011;6773;51.192;7.024;2022-07-29T15:59:00;3.08;;;2.40;;
13404;SDS011;6773;51.192;7.024;2022-07-29T16:01:26;5.07;;;2.70;;
13404;SDS011;6773;51.192;7.024;2022-07-29T16:03:52;3.78;;;2.40;;